Time;durP1;ratioP1;P1;durP2;ratioP2;P2;SDS_P1;SDS_P2;PMS_P1;PMS_P2;Temp;Humidity;BMP_temperature;BMP_pressure;BME280_temperature;BME280_humidity;BME280_pressure;Samples;Min_cycle;Max_cycle;Signal;HPM_P1;HPM_P2
2023/07/21 00:01:08;;;;;;;7.45;4.00;;;13.70;88.20;;;;;;5055072;28;20033;-47
2023/07/21 00:03:41;;;;;;;7.65;4.22;;;13.70;88.40;;;;;;5052148;28;20029;-48
2023/07/21 00:06:07;;;;;;;7.97;4.00;;;13.70;88.50;;;;;;5054652;28;20450;-47
2023/07/21 00:08:37;;;;;;;11.98;4.65;;;13.60;88.60;;;;;;5054900;28;20140;-46
2023/07/21 00:11:04;;;;;;;6.68;3.95;;;13.70;88.70;;;;;;5016220;28;20041;-49
2023/07/21 00:13:35;;;;;;;6.47;4.20;;;13.70;89.00;;;;;;5017455;28;20064;-46
2023/07/21 00:16:04;;;;;;;6.00;3.97;;;13.70;89.00;;;;;;5034672;28;20091;-46
2023/07/21 00:18:32;;;;;;;6.75;3.88;;;13.70;89.00;;;;;;5033681;28;20087;-48
2023/07/21 00:20:57;;;;;;;9.32;4.60;;;13.80;89.10;;;;;;5038080;28;20037;-47
2023/07/21 00:23:24;;;;;;;5.55;4.35;;;13.80;89.10;;;;;;5054616;28;20052;-50
2023/07/21 00:25:51;;;;;;;6.82;4.82;;;13.80;89.20;;;;;;5059245;28;20063;-46
2023/07/21 00:28:20;;;;;;;6.20;4.10;;;13.80;89.20;;;;;;5056646;28;20047;-47
2023/07/21 00:30:47;;;;;;;7.25;4.45;;;13.80;89.30;;;;;;5063416;28;20103;-46
2023/07/21 00:33:15;;;;;;;4.65;3.83;;;13.80;89.30;;;;;;5067073;28;20060;-47
2023/07/21 00:35:42;;;;;;;6.45;4.30;;;13.80;89.10;;;;;;5056577;28;20043;-47
2023/07/21 00:38:10;;;;;;;5.45;3.55;;;13.70;88.90;;;;;;5042129;28;20036;-46
2023/07/21 00:40:41;;;;;;;6.60;4.53;;;13.70;89.10;;;;;;5054054;28;20116;-47
2023/07/21 00:43:08;;;;;;;6.70;3.95;;;13.70;89.10;;;;;;5036730;28;20029;-46
2023/07/21 00:45:39;;;;;;;6.50;4.25;;;13.60;89.10;;;;;;5054533;28;20037;-46
2023/07/21 00:48:10;;;;;;;7.05;4.75;;;13.60;89.30;;;;;;5053210;28;20585;-46
2023/07/21 00:50:46;;;;;;;6.70;4.30;;;13.60;89.30;;;;;;5052716;28;20032;-47
2023/07/21 00:53:13;;;;;;;6.32;4.10;;;13.50;89.30;;;;;;5053810;28;20025;-49
2023/07/21 00:55:41;;;;;;;5.53;4.20;;;13.50;89.50;;;;;;5052381;28;20032;-46
2023/07/21 00:58:13;;;;;;;5.07;4.07;;;13.50;89.60;;;;;;5053032;28;21074;-45
2023/07/21 01:00:43;;;;;;;6.57;4.05;;;13.50;89.50;;;;;;5053831;28;20113;-47
2023/07/21 01:03:11;;;;;;;;;;;13.50;89.70;;;;;;5053353;28;20028;-46
2023/07/21 01:05:42;;;;;;;6.15;3.85;;;13.40;89.70;;;;;;5053614;28;19928;-46
2023/07/21 01:08:09;;;;;;;7.00;4.53;;;13.50;89.80;;;;;;5036656;28;20052;-46
2023/07/21 01:10:43;;;;;;;5.15;3.92;;;13.50;89.80;;;;;;5058906;28;20467;-45
2023/07/21 01:13:11;;;;;;;6.68;4.18;;;13.50;89.70;;;;;;5049359;28;20099;-45
2023/07/21 01:15:45;;;;;;;6.45;3.80;;;13.50;89.70;;;;;;5050153;28;20033;-45
2023/07/21 01:18:15;;;;;;;6.05;4.28;;;13.50;89.70;;;;;;5048844;28;20072;-48
2023/07/21 01:20:43;;;;;;;5.53;4.22;;;13.40;89.70;;;;;;5048821;28;20492;-45
2023/07/21 01:23:31;;;;;;;7.95;3.95;;;13.40;89.80;;;;;;5049185;28;20037;-44
2023/07/21 01:25:59;;;;;;;8.27;4.22;;;13.40;89.80;;;;;;5050044;28;20422;-44
2023/07/21 01:28:28;;;;;;;7.93;4.18;;;13.40;89.80;;;;;;5049640;28;20032;-45
2023/07/21 01:30:56;;;;;;;7.53;4.03;;;13.40;89.90;;;;;;5049991;28;20029;-45
2023/07/21 01:33:24;;;;;;;6.20;4.05;;;13.40;89.90;;;;;;5049917;28;20095;-45
2023/07/21 01:35:50;;;;;;;9.10;4.45;;;13.40;89.90;;;;;;5050111;28;20113;-45
2023/07/21 01:38:19;;;;;;;7.05;4.03;;;13.40;90.10;;;;;;5050028;28;20045;-45
2023/07/21 01:40:47;;;;;;;5.85;4.28;;;13.40;90.10;;;;;;5049630;28;20375;-45
2023/07/21 01:43:15;;;;;;;6.80;3.95;;;13.40;90.20;;;;;;5049327;28;20032;-45
2023/07/21 01:45:42;;;;;;;4.82;4.00;;;13.40;90.30;;;;;;5049535;28;20029;-45
2023/07/21 01:48:09;;;;;;;8.10;3.53;;;13.40;90.30;;;;;;5049632;28;20035;-45
2023/07/21 01:50:39;;;;;;;6.22;4.10;;;13.40;90.30;;;;;;5048432;28;20033;-45
2023/07/21 01:53:12;;;;;;;5.32;4.03;;;13.40;90.30;;;;;;5049574;28;20040;-45
2023/07/21 01:55:55;;;;;;;6.85;4.78;;;13.40;90.20;;;;;;5049782;28;20026;-44
2023/07/21 01:58:25;;;;;;;5.70;3.97;;;13.40;90.20;;;;;;5048458;28;20484;-45
2023/07/21 02:00:57;;;;;;;5.95;4.28;;;13.40;90.20;;;;;;5049560;28;20029;-44
2023/07/21 02:03:25;;;;;;;6.43;3.95;;;13.40;90.00;;;;;;5049223;28;20022;-46
2023/07/21 02:05:52;;;;;;;7.45;5.15;;;13.40;90.00;;;;;;5049561;28;20022;-45
2023/07/21 02:08:20;;;;;;;7.10;4.22;;;13.40;90.00;;;;;;5047721;28;20339;-46
2023/07/21 02:10:47;;;;;;;4.93;4.03;;;13.30;89.90;;;;;;5049052;28;20018;-44
2023/07/21 02:13:15;;;;;;;6.38;4.30;;;13.30;89.90;;;;;;5049008;28;20030;-45
2023/07/21 02:15:42;;;;;;;7.63;4.50;;;13.30;89.80;;;;;;5048170;28;20040;-45
2023/07/21 02:18:08;;;;;;;6.20;3.90;;;13.30;89.80;;;;;;5049178;28;20036;-47
2023/07/21 02:20:35;;;;;;;7.30;4.22;;;13.20;89.70;;;;;;5043949;28;20037;-45
2023/07/21 02:23:01;;;;;;;5.97;4.35;;;13.20;89.60;;;;;;5034459;28;20562;-45
2023/07/21 02:25:28;;;;;;;6.88;3.95;;;13.20;89.70;;;;;;5035338;28;20120;-45
2023/07/21 02:27:56;;;;;;;6.43;4.20;;;13.10;89.70;;;;;;5042125;28;20116;-44
2023/07/21 02:30:23;;;;;;;5.53;4.18;;;13.10;89.70;;;;;;5044540;28;20025;-43
2023/07/21 02:32:54;;;;;;;6.57;4.25;;;13.00;89.80;;;;;;5035891;28;20104;-44
2023/07/21 02:35:20;;;;;;;6.95;4.63;;;13.00;89.80;;;;;;5051724;28;20036;-45
2023/07/21 02:37:47;;;;;;;6.32;3.53;;;13.00;89.80;;;;;;5055652;28;20025;-43
2023/07/21 02:40:14;;;;;;;5.65;3.95;;;13.00;89.80;;;;;;5052380;28;20056;-43
2023/07/21 02:42:41;;;;;;;6.50;4.18;;;12.90;89.70;;;;;;5035667;28;20083;-44
2023/07/21 02:45:08;;;;;;;7.07;4.05;;;12.90;89.60;;;;;;5035399;28;20025;-44
2023/07/21 02:47:35;;;;;;;4.75;3.90;;;12.90;89.50;;;;;;5042335;28;20079;-44
2023/07/21 02:50:00;;;;;;;5.80;4.20;;;12.80;89.50;;;;;;5035310;28;20390;-44
2023/07/21 02:52:27;;;;;;;4.95;3.92;;;12.80;89.40;;;;;;5035107;28;20087;-44
2023/07/21 02:54:54;;;;;;;5.78;4.40;;;12.70;89.60;;;;;;5035244;28;20100;-43
2023/07/21 02:57:21;;;;;;;8.20;4.88;;;12.70;89.80;;;;;;5034023;28;20025;-43
2023/07/21 02:59:52;;;;;;;5.68;4.45;;;12.60;89.80;;;;;;5054059;28;20523;-43
2023/07/21 03:02:21;;;;;;;5.10;4.13;;;12.70;89.90;;;;;;5054517;28;20060;-44
2023/07/21 03:04:48;;;;;;;8.37;5.37;;;12.60;89.90;;;;;;5053697;28;20032;-44
2023/07/21 03:07:18;;;;;;;7.75;5.00;;;12.60;90.10;;;;;;5051135;28;20280;-45
2023/07/21 03:09:43;;;;;;;7.90;5.35;;;12.60;90.10;;;;;;5034538;28;20049;-45
2023/07/21 03:12:10;;;;;;;5.57;4.30;;;12.60;90.30;;;;;;5034923;28;20033;-43
2023/07/21 03:14:36;;;;;;;7.03;4.85;;;12.60;90.30;;;;;;5049123;28;20025;-44
2023/07/21 03:17:07;;;;;;;6.70;4.57;;;12.70;90.30;;;;;;5034875;28;20399;-43
2023/07/21 03:19:36;;;;;;;7.30;4.85;;;12.60;90.30;;;;;;5050395;28;20042;-45
2023/07/21 03:22:02;;;;;;;7.78;4.07;;;12.70;90.30;;;;;;5054708;28;20323;-43
2023/07/21 03:24:28;;;;;;;7.97;5.32;;;12.70;90.30;;;;;;5049827;28;20040;-43
2023/07/21 03:26:55;;;;;;;6.07;4.20;;;12.70;90.30;;;;;;5034051;28;20068;-43
2023/07/21 03:29:22;;;;;;;9.63;4.70;;;12.70;90.30;;;;;;5042718;28;20540;-43
2023/07/21 03:31:49;;;;;;;7.40;5.45;;;12.70;90.10;;;;;;5054062;28;20033;-43
2023/07/21 03:34:16;;;;;;;8.57;4.70;;;12.70;90.20;;;;;;5054136;28;20048;-48
2023/07/21 03:36:42;;;;;;;6.07;4.18;;;12.60;90.00;;;;;;5035528;28;20025;-43
2023/07/21 03:39:09;;;;;;;8.23;5.13;;;12.60;90.10;;;;;;5033345;28;20029;-44
2023/07/21 03:41:37;;;;;;;4.95;4.10;;;12.60;90.00;;;;;;5034203;28;20171;-44
2023/07/21 03:44:04;;;;;;;6.30;5.25;;;12.60;90.10;;;;;;5034278;28;20039;-46
2023/07/21 03:46:31;;;;;;;6.32;5.13;;;12.60;90.20;;;;;;5052079;28;20463;-42
2023/07/21 03:48:58;;;;;;;8.90;5.47;;;12.60;90.30;;;;;;5048346;28;20023;-43
2023/07/21 03:51:24;;;;;;;5.10;4.47;;;12.60;90.40;;;;;;5053070;28;20079;-43
2023/07/21 03:53:53;;;;;;;6.60;4.88;;;12.60;90.50;;;;;;5036234;28;20025;-44
2023/07/21 03:56:21;;;;;;;5.55;4.93;;;12.60;90.50;;;;;;5039091;28;20020;-43
2023/07/21 03:58:49;;;;;;;9.05;6.47;;;12.60;90.40;;;;;;5053984;28;20461;-43
2023/07/21 04:01:16;;;;;;;8.00;5.45;;;12.70;90.50;;;;;;5053457;28;20111;-43
2023/07/21 04:03:42;;;;;;;9.90;5.43;;;12.70;90.50;;;;;;5052673;28;20327;-43
2023/07/21 04:06:09;;;;;;;6.00;4.75;;;12.70;90.50;;;;;;5053734;28;20111;-42
2023/07/21 04:08:34;;;;;;;6.05;5.10;;;12.70;90.50;;;;;;5039485;28;20072;-44
2023/07/21 04:11:01;;;;;;;6.00;5.03;;;12.70;90.50;;;;;;5032990;28;20034;-43
2023/07/21 04:13:28;;;;;;;6.30;5.22;;;12.70;90.50;;;;;;5033790;28;20025;-42
2023/07/21 04:15:54;;;;;;;6.93;4.40;;;12.70;90.60;;;;;;5033735;28;20027;-44
2023/07/21 04:18:20;;;;;;;7.00;5.00;;;12.80;90.60;;;;;;5033550;28;20112;-43
2023/07/21 04:20:46;;;;;;;8.48;6.20;;;12.80;90.70;;;;;;5033391;28;20130;-48
2023/07/21 04:23:12;;;;;;;6.00;4.97;;;12.80;90.70;;;;;;5033404;28;20380;-44
2023/07/21 04:25:41;;;;;;;5.63;4.43;;;12.90;90.80;;;;;;5048320;28;20033;-43
2023/07/21 04:28:08;;;;;;;6.05;4.32;;;12.90;90.70;;;;;;5037306;28;20048;-42
2023/07/21 04:30:35;;;;;;;8.57;5.63;;;12.90;90.70;;;;;;5033303;28;20752;-43
2023/07/21 04:33:01;;;;;;;5.40;4.47;;;12.90;90.80;;;;;;5031983;28;20108;-44
2023/07/21 04:35:28;;;;;;;6.18;4.90;;;13.00;90.70;;;;;;5033175;28;20464;-42
2023/07/21 04:37:55;;;;;;;7.90;4.82;;;13.00;90.60;;;;;;5033548;28;20355;-42
2023/07/21 04:40:22;;;;;;;7.43;5.10;;;13.00;90.70;;;;;;5033177;28;20032;-43
2023/07/21 04:42:48;;;;;;;7.75;4.60;;;13.00;90.80;;;;;;5032807;28;20025;-42
2023/07/21 04:45:14;;;;;;;7.75;4.78;;;13.10;90.90;;;;;;5032919;28;20029;-43
2023/07/21 04:47:41;;;;;;;6.18;4.55;;;13.20;90.90;;;;;;5033134;28;20490;-42
2023/07/21 04:50:09;;;;;;;7.80;5.15;;;13.20;90.70;;;;;;5050619;28;20040;-42
2023/07/21 04:52:37;;;;;;;9.63;4.70;;;13.30;90.80;;;;;;5047759;28;20037;-42
2023/07/21 04:55:05;;;;;;;8.20;5.60;;;13.40;90.80;;;;;;5033034;28;20048;-42
2023/07/21 04:57:35;;;;;;;9.20;4.88;;;13.40;90.70;;;;;;5033309;28;20037;-43
2023/07/21 05:00:02;;;;;;;7.68;4.70;;;13.50;90.60;;;;;;5032075;28;20021;-42
2023/07/21 05:02:31;;;;;;;6.38;5.38;;;13.60;90.70;;;;;;5042334;28;20075;-45
2023/07/21 05:05:01;;;;;;;6.32;4.43;;;13.70;90.50;;;;;;5053364;28;20040;-42
2023/07/21 05:07:29;;;;;;;7.17;5.10;;;13.80;90.50;;;;;;5036788;28;20060;-43
2023/07/21 05:09:59;;;;;;;6.72;5.07;;;13.90;90.50;;;;;;5032654;28;20041;-44
2023/07/21 05:12:26;;;;;;;7.00;5.07;;;13.90;90.30;;;;;;5050331;28;20049;-44
2023/07/21 05:14:53;;;;;;;6.90;4.45;;;14.10;90.40;;;;;;5048944;28;20438;-43
2023/07/21 05:17:20;;;;;;;7.10;5.43;;;14.20;90.40;;;;;;5050620;28;20450;-44
2023/07/21 05:19:47;;;;;;;7.93;5.03;;;14.30;90.40;;;;;;5052172;28;20059;-45
2023/07/21 05:22:13;;;;;;;16.02;5.82;;;14.40;90.30;;;;;;5048546;28;20039;-46
2023/07/21 05:24:40;;;;;;;6.47;5.05;;;14.50;90.10;;;;;;5052016;28;20053;-48
2023/07/21 05:27:10;;;;;;;6.85;5.30;;;14.60;89.90;;;;;;5050223;28;20344;-44
2023/07/21 05:29:37;;;;;;;7.78;5.72;;;14.60;89.70;;;;;;5049599;28;20348;-45
2023/07/21 05:32:05;;;;;;;8.32;6.13;;;14.70;89.60;;;;;;5052219;28;20104;-46
2023/07/21 05:34:32;;;;;;;7.32;5.10;;;14.80;89.30;;;;;;5033618;28;20022;-44
2023/07/21 05:37:00;;;;;;;10.48;6.10;;;14.80;89.10;;;;;;5032547;28;20091;-44
2023/07/21 05:39:30;;;;;;;7.45;5.10;;;14.70;88.80;;;;;;5032611;28;20113;-44
2023/07/21 05:41:57;;;;;;;6.88;5.78;;;14.80;88.90;;;;;;5049981;28;20595;-45
2023/07/21 05:44:24;;;;;;;8.63;5.22;;;14.80;88.50;;;;;;5051041;28;20366;-43
2023/07/21 05:46:52;;;;;;;7.13;5.85;;;14.70;88.60;;;;;;5051057;28;20045;-44
2023/07/21 05:49:21;;;;;;;9.50;5.18;;;14.60;88.60;;;;;;5052042;28;20029;-45
2023/07/21 05:51:48;;;;;;;11.35;7.50;;;14.70;88.70;;;;;;5048261;28;20025;-45
2023/07/21 05:54:15;;;;;;;9.25;6.70;;;14.60;88.60;;;;;;5051015;28;20021;-45
2023/07/21 05:56:40;;;;;;;8.75;7.05;;;14.50;88.90;;;;;;5052896;28;20087;-45
2023/07/21 05:59:07;;;;;;;9.55;7.00;;;14.60;88.80;;;;;;5056010;28;20033;-45
2023/07/21 06:01:37;;;;;;;10.65;7.68;;;14.70;88.70;;;;;;5054003;28;20500;-44
2023/07/21 06:04:05;;;;;;;;;;;14.70;88.50;;;;;;5055188;28;20024;-45
2023/07/21 06:06:32;;;;;;;5.78;4.72;;;14.70;88.20;;;;;;5055120;28;19951;-44
2023/07/21 06:09:00;;;;;;;8.85;7.22;;;14.80;88.30;;;;;;5054521;28;20103;-48
2023/07/21 06:11:27;;;;;;;12.20;6.95;;;14.70;88.50;;;;;;5039417;28;20029;-45
2023/07/21 06:13:54;;;;;;;10.13;7.40;;;14.80;88.70;;;;;;5035470;28;20036;-45
2023/07/21 06:16:22;;;;;;;7.43;6.63;;;14.80;88.70;;;;;;5046376;28;20374;-45
2023/07/21 06:18:54;;;;;;;8.65;6.75;;;14.90;88.80;;;;;;5055249;28;20057;-44
2023/07/21 06:21:23;;;;;;;7.80;6.05;;;14.90;88.80;;;;;;5055388;28;20032;-44
2023/07/21 06:23:53;;;;;;;5.93;5.32;;;15.10;88.70;;;;;;5052416;28;20025;-45
2023/07/21 06:26:20;;;;;;;8.98;7.32;;;15.20;88.50;;;;;;5054054;28;20036;-45
2023/07/21 06:28:47;;;;;;;6.82;5.68;;;15.40;88.20;;;;;;5053299;28;20025;-47
2023/07/21 06:31:14;;;;;;;12.43;6.45;;;15.50;88.20;;;;;;5050385;28;20037;-46
2023/07/21 06:33:41;;;;;;;9.00;5.82;;;15.70;87.70;;;;;;5053821;28;20017;-47
2023/07/21 06:36:08;;;;;;;7.57;5.25;;;15.90;88.10;;;;;;5053032;28;20025;-45
2023/07/21 06:38:35;;;;;;;6.38;4.30;;;15.90;86.40;;;;;;5054230;28;20112;-45
2023/07/21 06:41:04;;;;;;;4.85;3.63;;;16.00;86.10;;;;;;5054932;28;20112;-46
2023/07/21 06:43:34;;;;;;;6.45;5.05;;;16.20;85.50;;;;;;5052825;28;20087;-47
2023/07/21 06:46:03;;;;;;;5.97;3.40;;;16.20;84.70;;;;;;5052170;28;20037;-46
2023/07/21 06:48:33;;;;;;;5.82;3.50;;;16.40;85.00;;;;;;5051720;28;20045;-46
2023/07/21 06:51:00;;;;;;;7.22;3.85;;;16.50;84.80;;;;;;5052788;28;20102;-47
2023/07/21 06:53:26;;;;;;;5.65;3.22;;;16.40;83.10;;;;;;5052153;28;20083;-47
2023/07/21 06:55:54;;;;;;;4.78;3.55;;;16.50;82.90;;;;;;5053994;28;20698;-46
2023/07/21 06:58:24;;;;;;;3.80;2.25;;;16.50;82.30;;;;;;5054641;28;20082;-46
2023/07/21 07:00:52;;;;;;;;;;;16.50;82.90;;;;;;5050599;28;20029;-46
2023/07/21 07:03:17;;;;;;;5.18;2.70;;;16.60;81.50;;;;;;5053362;28;20478;-48
2023/07/21 07:05:49;;;;;;;5.45;3.10;;;16.70;81.70;;;;;;5035733;28;20053;-47
2023/07/21 07:08:15;;;;;;;4.25;2.53;;;16.70;81.10;;;;;;5041188;28;20107;-47
2023/07/21 07:10:47;;;;;;;6.45;3.13;;;16.70;80.70;;;;;;5054145;28;20482;-48
2023/07/21 07:13:14;;;;;;;4.10;2.70;;;16.70;80.50;;;;;;5052061;28;21331;-48
2023/07/21 07:15:41;;;;;;;4.53;1.98;;;16.70;80.40;;;;;;5052598;28;20404;-47
2023/07/21 07:18:11;;;;;;;5.72;2.17;;;16.60;78.20;;;;;;5054008;28;20021;-50
2023/07/21 07:20:38;;;;;;;4.00;2.20;;;16.80;78.80;;;;;;5039816;28;20025;-46
2023/07/21 07:23:05;;;;;;;4.80;2.63;;;16.70;77.90;;;;;;5032147;28;20029;-49
2023/07/21 07:25:32;;;;;;;3.85;2.00;;;16.80;78.50;;;;;;5040500;28;20029;-47
2023/07/21 07:27:59;;;;;;;2.72;1.67;;;16.90;77.90;;;;;;5041454;28;20075;-46
2023/07/21 07:30:26;;;;;;;3.55;1.20;;;17.00;74.30;;;;;;5045482;28;20086;-47
2023/07/21 07:32:56;;;;;;;4.75;1.13;;;17.30;74.70;;;;;;5047530;28;20022;-49
2023/07/21 07:35:22;;;;;;;4.18;1.63;;;17.50;74.80;;;;;;5052034;28;20103;-48
2023/07/21 07:37:49;;;;;;;4.05;1.15;;;17.60;72.60;;;;;;5051142;28;20036;-47
2023/07/21 07:40:17;;;;;;;4.72;1.65;;;17.90;73.10;;;;;;5047774;28;20458;-48
2023/07/21 07:42:46;;;;;;;4.28;1.98;;;18.20;71.20;;;;;;5052972;28;20033;-48
2023/07/21 07:45:15;;;;;;;3.17;1.52;;;18.50;71.50;;;;;;5050437;28;20028;-49
2023/07/21 07:47:44;;;;;;;1.63;0.93;;;18.90;68.30;;;;;;5036203;28;20108;-47
2023/07/21 07:50:11;;;;;;;2.85;1.23;;;19.40;66.60;;;;;;5052596;28;20025;-50
2023/07/21 07:52:45;;;;;;;2.60;1.20;;;19.80;65.90;;;;;;5052531;28;20029;-49
2023/07/21 07:55:12;;;;;;;2.65;1.00;;;20.10;63.30;;;;;;5044135;28;20029;-53
2023/07/21 07:57:41;;;;;;;4.43;1.20;;;20.30;61.10;;;;;;5049077;28;20349;-51
2023/07/21 08:00:09;;;;;;;3.22;0.95;;;20.50;59.00;;;;;;5052944;28;20037;-50
2023/07/21 08:02:36;;;;;;;3.65;1.05;;;20.70;60.50;;;;;;5047381;28;20505;-51
2023/07/21 08:05:04;;;;;;;2.30;1.10;;;20.90;59.70;;;;;;5048596;28;20481;-47
2023/07/21 08:07:30;;;;;;;2.47;1.00;;;21.40;62.00;;;;;;5040599;28;20064;-50
2023/07/21 08:09:57;;;;;;;3.80;1.27;;;21.70;57.70;;;;;;5050514;28;20117;-53
2023/07/21 08:12:24;;;;;;;2.88;1.25;;;21.50;58.10;;;;;;5044668;28;20351;-51
2023/07/21 08:14:53;;;;;;;1.52;0.77;;;21.80;57.50;;;;;;5051075;28;20045;-49
2023/07/21 08:17:23;;;;;;;2.13;1.10;;;22.10;57.40;;;;;;5042777;28;20443;-51
2023/07/21 08:19:53;;;;;;;3.25;0.88;;;22.20;53.80;;;;;;5042244;28;20049;-50
2023/07/21 08:22:22;;;;;;;1.90;0.85;;;22.30;55.80;;;;;;5038890;28;20033;-49
2023/07/21 08:24:49;;;;;;;3.10;0.80;;;22.40;54.60;;;;;;5043912;28;20037;-47
2023/07/21 08:27:16;;;;;;;2.00;1.10;;;22.60;53.40;;;;;;5044132;28;20033;-49
2023/07/21 08:29:45;;;;;;;2.47;1.08;;;22.40;52.90;;;;;;5046938;28;20503;-47
2023/07/21 08:32:12;;;;;;;2.67;1.45;;;22.50;52.30;;;;;;5050400;28;20025;-50
2023/07/21 08:34:39;;;;;;;2.08;1.13;;;22.40;53.20;;;;;;5047335;28;20463;-47
2023/07/21 08:37:06;;;;;;;1.92;0.95;;;22.10;53.70;;;;;;5044307;28;20339;-48
2023/07/21 08:39:33;;;;;;;1.75;1.13;;;21.90;53.50;;;;;;5045212;28;20029;-50
2023/07/21 08:42:02;;;;;;;4.32;1.77;;;21.80;55.60;;;;;;5050435;28;20025;-51
2023/07/21 08:44:33;;;;;;;2.10;1.08;;;22.00;54.60;;;;;;5050026;28;20028;-52
2023/07/21 08:46:59;;;;;;;1.83;0.82;;;21.90;55.00;;;;;;5049641;28;20039;-48
2023/07/21 08:49:26;;;;;;;2.40;0.98;;;21.80;55.20;;;;;;5044564;28;20456;-52
2023/07/21 08:51:53;;;;;;;2.40;1.27;;;21.60;57.10;;;;;;5046210;28;20042;-50
2023/07/21 08:54:20;;;;;;;2.40;1.30;;;21.90;56.40;;;;;;5052125;28;20025;-47
2023/07/21 08:56:45;;;;;;;1.83;1.08;;;21.90;56.10;;;;;;5037285;28;20025;-50
2023/07/21 08:59:12;;;;;;;4.40;1.50;;;21.70;56.30;;;;;;5044335;28;20048;-47
2023/07/21 09:01:41;;;;;;;5.07;1.50;;;21.10;56.70;;;;;;5043136;28;20696;-48
2023/07/21 09:04:18;;;;;;;1.88;0.93;;;20.80;58.30;;;;;;5044596;28;20037;-48
2023/07/21 09:06:57;;;;;;;2.72;1.10;;;20.60;58.10;;;;;;5046516;28;20366;-47
2023/07/21 09:09:25;;;;;;;2.17;0.90;;;20.20;59.60;;;;;;5046462;28;20128;-47
2023/07/21 09:12:01;;;;;;;2.60;1.15;;;20.40;60.10;;;;;;5045328;28;20091;-54
2023/07/21 09:14:41;;;;;;;3.78;1.23;;;21.00;62.30;;;;;;5043825;28;20033;-52
2023/07/21 09:17:11;;;;;;;;;;;21.80;60.50;;;;;;5041720;28;20028;-50
2023/07/21 09:19:39;;;;;;;2.88;1.15;;;22.40;58.30;;;;;;5046555;28;19917;-50
2023/07/21 09:22:07;;;;;;;5.30;1.30;;;22.90;59.00;;;;;;5048241;28;20041;-50
2023/07/21 09:24:34;;;;;;;1.77;1.00;;;23.10;53.60;;;;;;5050510;28;20044;-52
2023/07/21 09:27:19;;;;;;;2.88;1.55;;;23.40;54.40;;;;;;5036855;28;20124;-47
2023/07/21 09:29:48;;;;;;;4.07;1.23;;;23.50;53.50;;;;;;5069731;28;20040;-53
2023/07/21 09:32:18;;;;;;;3.08;1.10;;;23.90;53.00;;;;;;5054970;28;20021;-48
2023/07/21 09:35:04;;;;;;;2.28;1.08;;;24.10;56.70;;;;;;5056631;28;20025;-48
2023/07/21 09:37:33;;;;;;;1.92;0.80;;;24.40;51.20;;;;;;5049425;28;20401;-50
2023/07/21 09:40:09;;;;;;;5.03;1.20;;;24.60;52.60;;;;;;5045337;28;20041;-47
2023/07/21 09:42:35;;;;;;;2.03;0.85;;;24.60;49.00;;;;;;5047277;28;20135;-49
2023/07/21 09:45:02;;;;;;;3.20;1.30;;;24.70;51.10;;;;;;5046729;28;20035;-47
2023/07/21 09:47:31;;;;;;;3.67;1.40;;;24.90;49.40;;;;;;5043515;28;20047;-48
2023/07/21 09:50:01;;;;;;;2.10;1.13;;;24.80;51.00;;;;;;5039994;28;20033;-48
2023/07/21 09:52:28;;;;;;;;;;;24.40;50.10;;;;;;5053638;28;20033;-48
2023/07/21 09:55:11;;;;;;;2.10;1.10;;;23.60;50.90;;;;;;5040971;28;19913;-49
2023/07/21 09:57:44;;;;;;;3.40;1.05;;;23.50;51.50;;;;;;5048473;28;20044;-52
2023/07/21 10:00:13;;;;;;;2.58;1.17;;;23.60;51.50;;;;;;5048997;28;20039;-52
2023/07/21 10:02:45;;;;;;;1.50;0.93;;;23.80;52.10;;;;;;5043907;28;20032;-49
2023/07/21 10:05:13;;;;;;;2.17;1.10;;;23.90;50.50;;;;;;5052263;28;20033;-47
2023/07/21 10:07:42;;;;;;;1.70;0.90;;;23.90;49.80;;;;;;5037731;28;20045;-46
2023/07/21 10:10:10;;;;;;;1.75;0.75;;;24.40;53.30;;;;;;5042280;28;21893;-49
2023/07/21 10:12:49;;;;;;;2.28;0.93;;;24.20;48.80;;;;;;5051001;28;20072;-50
2023/07/21 10:15:18;;;;;;;3.20;0.83;;;23.90;49.90;;;;;;5051514;28;20363;-47
2023/07/21 10:18:12;;;;;;;2.25;0.82;;;23.60;51.60;;;;;;5048936;28;20355;-51
2023/07/21 10:20:57;;;;;;;1.88;0.88;;;23.40;51.20;;;;;;5051238;28;20086;-49
2023/07/21 10:23:25;;;;;;;1.98;0.93;;;22.50;53.90;;;;;;5049314;28;20544;-49
2023/07/21 10:26:00;;;;;;;2.42;1.02;;;22.10;54.80;;;;;;5044347;28;20112;-48
2023/07/21 10:28:46;;;;;;;3.10;1.42;;;21.90;54.30;;;;;;5045051;28;20029;-47
2023/07/21 10:31:24;;;;;;;2.63;1.33;;;21.40;56.20;;;;;;5045795;28;20044;-49
2023/07/21 10:34:16;;;;;;;1.27;0.65;;;21.20;56.00;;;;;;5046074;28;21747;-47
2023/07/21 10:36:56;;;;;;;6.03;1.55;;;21.40;57.40;;;;;;5042638;28;20643;-51
2023/07/21 10:39:31;;;;;;;1.90;0.82;;;22.00;59.90;;;;;;5048451;28;20041;-48
2023/07/21 10:42:00;;;;;;;3.78;1.05;;;23.00;57.50;;;;;;5041825;28;20124;-47
2023/07/21 10:44:45;;;;;;;1.95;0.98;;;24.00;56.40;;;;;;5050130;28;20056;-49
2023/07/21 10:47:14;;;;;;;7.82;1.60;;;24.10;52.10;;;;;;5048929;28;20041;-49
2023/07/21 10:49:41;;;;;;;2.10;1.00;;;24.40;50.10;;;;;;5041905;28;20457;-47
2023/07/21 10:52:11;;;;;;;2.03;1.00;;;24.80;53.10;;;;;;5039386;28;20029;-47
2023/07/21 10:54:39;;;;;;;2.05;1.08;;;25.10;48.70;;;;;;5043491;28;20024;-47
2023/07/21 10:57:09;;;;;;;2.88;1.13;;;25.20;49.80;;;;;;5043293;28;20031;-47
2023/07/21 10:59:37;;;;;;;2.72;1.10;;;24.40;49.10;;;;;;5048402;28;20088;-49
2023/07/21 11:02:07;;;;;;;2.78;1.13;;;23.40;50.10;;;;;;5045600;28;20029;-49
2023/07/21 11:04:37;;;;;;;2.92;1.20;;;22.60;52.00;;;;;;5040952;28;20393;-51
2023/07/21 11:07:04;;;;;;;5.03;1.75;;;22.00;53.70;;;;;;5040704;28;20045;-51
2023/07/21 11:09:36;;;;;;;2.10;1.00;;;21.40;56.50;;;;;;5041130;28;20501;-54
2023/07/21 11:12:03;;;;;;;2.38;1.08;;;20.80;58.50;;;;;;5050223;28;20033;-48
2023/07/21 11:14:31;;;;;;;3.90;1.13;;;20.40;60.40;;;;;;5051613;28;20028;-48
2023/07/21 11:17:01;;;;;;;3.35;1.02;;;20.00;60.80;;;;;;5041658;28;20027;-47
2023/07/21 11:19:30;;;;;;;2.58;0.95;;;19.70;62.50;;;;;;5038511;28;20044;-51
2023/07/21 11:21:58;;;;;;;1.60;0.83;;;19.40;63.90;;;;;;5043022;28;20029;-47
2023/07/21 11:24:29;;;;;;;2.70;1.30;;;19.40;64.30;;;;;;5049653;28;20283;-48
2023/07/21 11:27:05;;;;;;;2.17;1.08;;;19.50;64.50;;;;;;5043635;28;20059;-47
2023/07/21 11:29:34;;;;;;;5.60;1.40;;;19.70;64.10;;;;;;5038871;28;20033;-51
2023/07/21 11:32:14;;;;;;;;;;;20.40;66.10;;;;;;5038714;28;20530;-51
2023/07/21 11:34:41;;;;;;;3.42;1.42;;;20.90;63.90;;;;;;5049056;28;19916;-50
2023/07/21 11:37:09;;;;;;;1.30;0.77;;;21.30;60.30;;;;;;5043390;28;20056;-48
2023/07/21 11:39:34;;;;;;;2.45;1.10;;;21.40;60.30;;;;;;5040243;28;20029;-50
2023/07/21 11:42:01;;;;;;;2.40;1.15;;;21.70;60.70;;;;;;5049222;28;20029;-53
2023/07/21 11:44:35;;;;;;;2.17;1.13;;;22.20;61.50;;;;;;5050952;28;20032;-49
2023/07/21 11:47:07;;;;;;;1.55;0.98;;;22.70;61.30;;;;;;5047438;28;20115;-47
2023/07/21 11:49:45;;;;;;;2.60;1.20;;;23.30;57.80;;;;;;5050016;28;20622;-50
2023/07/21 11:52:26;;;;;;;2.78;1.05;;;23.20;55.20;;;;;;5043318;28;20035;-49
2023/07/21 11:54:55;;;;;;;2.13;1.05;;;23.00;56.40;;;;;;5043843;28;20032;-49
2023/07/21 11:57:21;;;;;;;2.00;0.97;;;22.90;51.30;;;;;;5046807;28;20029;-50
2023/07/21 11:59:49;;;;;;;2.63;1.05;;;22.80;52.40;;;;;;5040240;28;20509;-47
2023/07/21 12:02:22;;;;;;;3.85;1.33;;;22.60;52.80;;;;;;5048021;28;20029;-49
2023/07/21 12:04:49;;;;;;;1.63;0.88;;;22.10;53.60;;;;;;5048251;28;20027;-47
2023/07/21 12:07:16;;;;;;;2.25;1.10;;;21.90;53.50;;;;;;5036042;28;20037;-47
2023/07/21 12:09:42;;;;;;;2.50;1.10;;;21.50;55.60;;;;;;5036952;28;20049;-50
2023/07/21 12:12:11;;;;;;;2.20;1.30;;;21.20;56.40;;;;;;5042268;28;20079;-49
2023/07/21 12:14:38;;;;;;;10.50;2.10;;;20.90;56.00;;;;;;5034376;28;20037;-53
2023/07/21 12:17:06;;;;;;;5.78;2.05;;;20.40;60.00;;;;;;5042796;28;20029;-50
2023/07/21 12:19:34;;;;;;;3.95;1.98;;;19.70;67.10;;;;;;5044810;28;20037;-46
2023/07/21 12:22:01;;;;;;;3.13;1.60;;;19.00;71.10;;;;;;5041686;28;20021;-47
2023/07/21 12:24:28;;;;;;;5.35;2.20;;;18.60;73.90;;;;;;5037405;28;20342;-45
2023/07/21 12:26:54;;;;;;;5.78;2.38;;;18.00;76.30;;;;;;5033049;28;20047;-49
2023/07/21 12:29:22;;;;;;;6.63;2.35;;;17.50;78.40;;;;;;5034027;28;20035;-52
2023/07/21 12:31:48;;;;;;;8.95;4.13;;;17.10;80.60;;;;;;5050196;28;20044;-60
2023/07/21 12:34:15;;;;;;;8.57;4.28;;;16.90;83.60;;;;;;5038989;28;20021;-59
2023/07/21 12:36:44;;;;;;;9.73;5.13;;;16.70;84.00;;;;;;5047585;28;20570;-57
2023/07/21 12:39:12;;;;;;;7.53;4.27;;;16.50;86.10;;;;;;5038650;28;20048;-56
2023/07/21 12:41:39;;;;;;;7.32;3.38;;;16.40;86.90;;;;;;5037868;28;20749;-51
2023/07/21 12:44:09;;;;;;;5.80;3.92;;;16.40;86.90;;;;;;5041418;28;20056;-49
2023/07/21 12:46:36;;;;;;;5.13;3.90;;;16.40;88.30;;;;;;5037387;28;20377;-55
2023/07/21 12:49:02;;;;;;;6.25;2.97;;;16.40;88.10;;;;;;5034036;28;20029;-59
2023/07/21 12:51:29;;;;;;;5.47;3.50;;;16.40;88.00;;;;;;5040089;28;20051;-54
2023/07/21 12:53:56;;;;;;;7.07;3.42;;;16.50;87.80;;;;;;5068782;28;20494;-52
2023/07/21 12:56:25;;;;;;;7.22;3.00;;;16.50;87.80;;;;;;5037615;28;20427;-54